sensor_id;sensor_type;location;lat;lon;timestamp;pressure;altitude;pressure_sealevel;temperature;humidity
35892;BME280;21993;42.672;23.296;2022-12-18T00:01:31;95459.34;;;9.70;72.35
35892;BME280;21993;42.672;23.296;2022-12-18T00:03:59;95469.66;;;9.60;71.68
35892;BME280;21993;42.672;23.296;2022-12-18T00:06:26;95463.13;;;9.42;72.05
35892;BME280;21993;42.672;23.296;2022-12-18T00:08:52;95464.72;;;9.31;72.62
35892;BME280;21993;42.672;23.296;2022-12-18T00:11:20;95468.56;;;9.39;72.44
35892;BME280;21993;42.672;23.296;2022-12-18T00:13:46;95473.25;;;9.46;71.63
35892;BME280;21993;42.672;23.296;2022-12-18T00:16:14;95478.38;;;9.48;71.98
35892;BME280;21993;42.672;23.296;2022-12-18T00:18:41;95476.31;;;9.40;71.80
35892;BME280;21993;42.672;23.296;2022-12-18T00:21:09;95483.69;;;9.22;72.19
35892;BME280;21993;42.672;23.296;2022-12-18T00:23:36;95488.41;;;9.30;72.82
35892;BME280;21993;42.672;23.296;2022-12-18T00:26:04;95483.03;;;9.31;72.75
35892;BME280;21993;42.672;23.296;2022-12-18T00:28:31;95490.72;;;9.35;71.74
35892;BME280;21993;42.672;23.296;2022-12-18T00:31:03;95484.63;;;9.34;71.89
35892;BME280;21993;42.672;23.296;2022-12-18T00:33:29;95499.69;;;9.43;71.71
35892;BME280;21993;42.672;23.296;2022-12-18T00:36:00;95498.03;;;9.29;71.46
35892;BME280;21993;42.672;23.296;2022-12-18T00:38:26;95495.31;;;9.31;71.97
35892;BME280;21993;42.672;23.296;2022-12-18T00:40:51;95500.56;;;9.31;72.20
35892;BME280;21993;42.672;23.296;2022-12-18T00:43:16;95501.38;;;9.31;71.71
35892;BME280;21993;42.672;23.296;2022-12-18T00:45:42;95498.28;;;9.26;71.48
35892;BME280;21993;42.672;23.296;2022-12-18T00:48:07;95504.75;;;9.34;71.67
35892;BME280;21993;42.672;23.296;2022-12-18T00:50:33;95510.63;;;9.24;72.22
35892;BME280;21993;42.672;23.296;2022-12-18T00:52:58;95507.38;;;9.34;71.87
35892;BME280;21993;42.672;23.296;2022-12-18T00:55:23;95514.38;;;9.33;72.03
35892;BME280;21993;42.672;23.296;2022-12-18T00:57:51;95518.69;;;9.34;71.94
35892;BME280;21993;42.672;23.296;2022-12-18T01:00:17;95516.69;;;9.38;71.05
35892;BME280;21993;42.672;23.296;2022-12-18T01:02:42;95523.09;;;9.34;71.06
35892;BME280;21993;42.672;23.296;2022-12-18T01:05:10;95515.31;;;9.32;71.54
35892;BME280;21993;42.672;23.296;2022-12-18T01:07:36;95519.88;;;9.17;70.75
35892;BME280;21993;42.672;23.296;2022-12-18T01:10:01;95525.84;;;9.19;71.19
35892;BME280;21993;42.672;23.296;2022-12-18T01:12:26;95536.25;;;9.08;71.00
35892;BME280;21993;42.672;23.296;2022-12-18T01:14:52;95540.22;;;9.01;71.72
35892;BME280;21993;42.672;23.296;2022-12-18T01:17:17;95534.03;;;9.02;71.40
35892;BME280;21993;42.672;23.296;2022-12-18T01:19:43;95534.84;;;8.90;71.02
35892;BME280;21993;42.672;23.296;2022-12-18T01:22:08;95538.22;;;8.79;71.68
35892;BME280;21993;42.672;23.296;2022-12-18T01:24:33;95533.28;;;8.87;71.10
35892;BME280;21993;42.672;23.296;2022-12-18T01:26:59;95549.31;;;8.83;71.20
35892;BME280;21993;42.672;23.296;2022-12-18T01:29:24;95541.78;;;8.78;71.09
35892;BME280;21993;42.672;23.296;2022-12-18T01:31:50;95540.63;;;8.69;71.24
35892;BME280;21993;42.672;23.296;2022-12-18T01:34:15;95545.97;;;8.68;71.44
35892;BME280;21993;42.672;23.296;2022-12-18T01:36:40;95550.25;;;8.69;71.10
35892;BME280;21993;42.672;23.296;2022-12-18T01:39:10;95554.72;;;8.54;71.50
35892;BME280;21993;42.672;23.296;2022-12-18T01:41:36;95557.97;;;8.45;71.89
35892;BME280;21993;42.672;23.296;2022-12-18T01:49:51;95566.53;;;8.47;71.22
35892;BME280;21993;42.672;23.296;2022-12-18T01:52:18;95558.06;;;8.56;72.10
35892;BME280;21993;42.672;23.296;2022-12-18T01:54:46;95557.03;;;8.46;70.70
35892;BME280;21993;42.672;23.296;2022-12-18T01:57:12;95553.97;;;8.39;72.44
35892;BME280;21993;42.672;23.296;2022-12-18T01:59:38;95566.53;;;8.47;70.98
35892;BME280;21993;42.672;23.296;2022-12-18T02:02:06;95562.22;;;8.33;71.34
35892;BME280;21993;42.672;23.296;2022-12-18T02:04:32;95567.84;;;8.27;70.98
35892;BME280;21993;42.672;23.296;2022-12-18T02:07:07;95567.88;;;8.40;71.77
35892;BME280;21993;42.672;23.296;2022-12-18T02:10:20;95565.75;;;8.32;71.39
35892;BME280;21993;42.672;23.296;2022-12-18T02:16:08;95578.56;;;8.37;71.85
35892;BME280;21993;42.672;23.296;2022-12-18T02:18:41;95583.50;;;8.41;71.55
35892;BME280;21993;42.672;23.296;2022-12-18T02:26:30;95584.34;;;8.42;71.50
35892;BME280;21993;42.672;23.296;2022-12-18T02:29:12;95589.03;;;8.37;70.73
35892;BME280;21993;42.672;23.296;2022-12-18T02:31:43;95584.16;;;8.31;71.79
35892;BME280;21993;42.672;23.296;2022-12-18T02:34:10;95587.34;;;8.36;70.93
35892;BME280;21993;42.672;23.296;2022-12-18T02:36:40;95581.00;;;8.26;71.26
35892;BME280;21993;42.672;23.296;2022-12-18T02:39:08;95593.16;;;8.27;71.72
35892;BME280;21993;42.672;23.296;2022-12-18T02:41:35;95584.84;;;8.20;71.52
35892;BME280;21993;42.672;23.296;2022-12-18T02:44:07;95590.47;;;8.14;72.06
35892;BME280;21993;42.672;23.296;2022-12-18T02:46:36;95593.69;;;7.78;72.16
35892;BME280;21993;42.672;23.296;2022-12-18T02:52:17;95599.13;;;8.02;71.74
35892;BME280;21993;42.672;23.296;2022-12-18T02:57:16;95586.50;;;8.08;71.32
35892;BME280;21993;42.672;23.296;2022-12-18T03:00:03;95594.00;;;8.00;72.14
35892;BME280;21993;42.672;23.296;2022-12-18T03:02:48;95596.84;;;7.83;72.44
35892;BME280;21993;42.672;23.296;2022-12-18T03:05:33;95600.66;;;7.92;71.99
35892;BME280;21993;42.672;23.296;2022-12-18T03:08:06;95605.56;;;7.96;71.44
35892;BME280;21993;42.672;23.296;2022-12-18T03:10:37;95604.47;;;8.00;71.25
35892;BME280;21993;42.672;23.296;2022-12-18T03:13:08;95612.44;;;7.84;71.90
35892;BME280;21993;42.672;23.296;2022-12-18T03:15:42;95611.41;;;7.73;72.85
35892;BME280;21993;42.672;23.296;2022-12-18T03:18:22;95609.91;;;7.83;72.29
35892;BME280;21993;42.672;23.296;2022-12-18T03:20:51;95616.34;;;7.77;71.48
35892;BME280;21993;42.672;23.296;2022-12-18T03:23:22;95613.63;;;7.93;71.13
35892;BME280;21993;42.672;23.296;2022-12-18T03:25:51;95615.16;;;7.83;71.67
35892;BME280;21993;42.672;23.296;2022-12-18T03:28:20;95624.94;;;7.79;71.04
35892;BME280;21993;42.672;23.296;2022-12-18T03:30:48;95625.13;;;7.90;71.48
35892;BME280;21993;42.672;23.296;2022-12-18T03:35:51;95635.88;;;7.72;71.62
35892;BME280;21993;42.672;23.296;2022-12-18T03:38:17;95635.59;;;7.76;72.27
35892;BME280;21993;42.672;23.296;2022-12-18T03:46:02;95659.94;;;7.77;72.03
35892;BME280;21993;42.672;23.296;2022-12-18T03:48:47;95651.00;;;7.67;72.38
35892;BME280;21993;42.672;23.296;2022-12-18T03:51:24;95653.31;;;7.71;71.10
35892;BME280;21993;42.672;23.296;2022-12-18T03:53:56;95666.22;;;7.60;71.68
35892;BME280;21993;42.672;23.296;2022-12-18T03:56:25;95672.28;;;7.75;71.47
35892;BME280;21993;42.672;23.296;2022-12-18T03:58:53;95658.75;;;7.82;70.83
35892;BME280;21993;42.672;23.296;2022-12-18T04:01:20;95662.78;;;7.74;71.04
35892;BME280;21993;42.672;23.296;2022-12-18T04:03:48;95674.44;;;7.68;71.41
35892;BME280;21993;42.672;23.296;2022-12-18T04:06:15;95675.16;;;7.70;70.91
35892;BME280;21993;42.672;23.296;2022-12-18T04:08:42;95678.06;;;7.66;71.69
35892;BME280;21993;42.672;23.296;2022-12-18T04:11:07;95676.56;;;7.61;71.62
35892;BME280;21993;42.672;23.296;2022-12-18T04:13:36;95687.97;;;7.60;71.43
35892;BME280;21993;42.672;23.296;2022-12-18T04:16:02;95688.25;;;7.42;71.67
35892;BME280;21993;42.672;23.296;2022-12-18T04:18:27;95696.72;;;7.45;71.38
35892;BME280;21993;42.672;23.296;2022-12-18T04:20:53;95695.06;;;7.58;70.86
35892;BME280;21993;42.672;23.296;2022-12-18T04:23:18;95697.00;;;7.69;70.34
35892;BME280;21993;42.672;23.296;2022-12-18T04:25:43;95699.06;;;7.50;70.09
35892;BME280;21993;42.672;23.296;2022-12-18T04:28:09;95697.06;;;7.39;70.88
35892;BME280;21993;42.672;23.296;2022-12-18T04:30:34;95696.06;;;7.56;69.55
35892;BME280;21993;42.672;23.296;2022-12-18T04:33:00;95704.09;;;7.53;70.35
35892;BME280;21993;42.672;23.296;2022-12-18T04:35:25;95717.88;;;7.26;70.54
35892;BME280;21993;42.672;23.296;2022-12-18T04:37:51;95724.69;;;7.29;69.70
35892;BME280;21993;42.672;23.296;2022-12-18T04:40:16;95724.97;;;7.24;69.34
35892;BME280;21993;42.672;23.296;2022-12-18T04:42:41;95730.63;;;7.17;69.96
35892;BME280;21993;42.672;23.296;2022-12-18T04:45:07;95731.56;;;7.16;70.13
35892;BME280;21993;42.672;23.296;2022-12-18T04:47:33;95738.47;;;7.17;70.12
35892;BME280;21993;42.672;23.296;2022-12-18T04:49:58;95733.09;;;7.04;69.58
35892;BME280;21993;42.672;23.296;2022-12-18T04:52:24;95743.34;;;6.93;69.21
35892;BME280;21993;42.672;23.296;2022-12-18T04:54:49;95745.31;;;7.03;68.93
35892;BME280;21993;42.672;23.296;2022-12-18T04:57:14;95742.47;;;7.08;68.80
35892;BME280;21993;42.672;23.296;2022-12-18T04:59:40;95743.94;;;6.98;69.17
35892;BME280;21993;42.672;23.296;2022-12-18T05:02:05;95756.50;;;7.05;68.88
35892;BME280;21993;42.672;23.296;2022-12-18T05:04:31;95757.53;;;7.03;69.02
35892;BME280;21993;42.672;23.296;2022-12-18T05:06:56;95760.06;;;7.04;68.61
35892;BME280;21993;42.672;23.296;2022-12-18T05:09:22;95767.75;;;7.22;68.22
35892;BME280;21993;42.672;23.296;2022-12-18T05:11:48;95765.13;;;7.22;67.67
35892;BME280;21993;42.672;23.296;2022-12-18T05:14:13;95761.66;;;7.07;68.39
35892;BME280;21993;42.672;23.296;2022-12-18T05:16:39;95773.09;;;7.04;68.24
35892;BME280;21993;42.672;23.296;2022-12-18T05:19:04;95765.56;;;7.00;67.98
35892;BME280;21993;42.672;23.296;2022-12-18T05:21:29;95764.53;;;7.02;67.77
35892;BME280;21993;42.672;23.296;2022-12-18T05:23:55;95773.38;;;7.00;68.61
35892;BME280;21993;42.672;23.296;2022-12-18T05:26:20;95770.22;;;6.79;68.74
35892;BME280;21993;42.672;23.296;2022-12-18T05:28:45;95768.00;;;6.87;68.40
35892;BME280;21993;42.672;23.296;2022-12-18T05:31:11;95782.88;;;7.01;68.94
35892;BME280;21993;42.672;23.296;2022-12-18T05:33:37;95783.06;;;6.98;68.65
35892;BME280;21993;42.672;23.296;2022-12-18T05:36:05;95789.19;;;6.97;68.46
35892;BME280;21993;42.672;23.296;2022-12-18T05:38:32;95795.53;;;6.93;69.05
35892;BME280;21993;42.672;23.296;2022-12-18T05:40:58;95808.91;;;7.02;68.60
35892;BME280;21993;42.672;23.296;2022-12-18T05:43:25;95814.78;;;7.06;68.25
35892;BME280;21993;42.672;23.296;2022-12-18T05:45:51;95815.38;;;7.11;68.48
35892;BME280;21993;42.672;23.296;2022-12-18T05:48:18;95811.91;;;7.11;68.32
35892;BME280;21993;42.672;23.296;2022-12-18T05:50:44;95817.16;;;6.95;67.36
35892;BME280;21993;42.672;23.296;2022-12-18T05:53:14;95813.41;;;6.85;67.12
35892;BME280;21993;42.672;23.296;2022-12-18T05:55:42;95818.00;;;6.80;67.60
35892;BME280;21993;42.672;23.296;2022-12-18T05:58:08;95810.78;;;6.85;66.77
35892;BME280;21993;42.672;23.296;2022-12-18T06:00:36;95810.09;;;6.97;66.89
35892;BME280;21993;42.672;23.296;2022-12-18T06:03:05;95814.56;;;6.95;67.12
35892;BME280;21993;42.672;23.296;2022-12-18T06:05:39;95828.63;;;6.92;66.90
35892;BME280;21993;42.672;23.296;2022-12-18T06:08:05;95833.84;;;6.76;67.60
35892;BME280;21993;42.672;23.296;2022-12-18T06:10:31;95832.09;;;6.77;67.81
35892;BME280;21993;42.672;23.296;2022-12-18T06:12:56;95831.50;;;6.56;68.37
35892;BME280;21993;42.672;23.296;2022-12-18T06:15:22;95826.72;;;6.48;68.64
35892;BME280;21993;42.672;23.296;2022-12-18T06:17:47;95832.00;;;6.63;68.06
35892;BME280;21993;42.672;23.296;2022-12-18T06:20:12;95837.31;;;6.61;68.48
35892;BME280;21993;42.672;23.296;2022-12-18T06:22:38;95836.78;;;6.55;68.73
35892;BME280;21993;42.672;23.296;2022-12-18T06:25:04;95836.63;;;6.42;69.37
35892;BME280;21993;42.672;23.296;2022-12-18T06:27:29;95843.25;;;6.63;68.25
35892;BME280;21993;42.672;23.296;2022-12-18T06:29:55;95850.69;;;6.71;68.57
35892;BME280;21993;42.672;23.296;2022-12-18T06:32:20;95853.13;;;6.90;67.71
35892;BME280;21993;42.672;23.296;2022-12-18T06:34:45;95848.81;;;6.89;67.70
35892;BME280;21993;42.672;23.296;2022-12-18T06:37:11;95860.78;;;6.93;67.06
35892;BME280;21993;42.672;23.296;2022-12-18T06:39:36;95856.59;;;6.90;67.54
35892;BME280;21993;42.672;23.296;2022-12-18T06:42:03;95862.88;;;6.86;67.67
35892;BME280;21993;42.672;23.296;2022-12-18T06:44:28;95865.69;;;6.83;67.99
35892;BME280;21993;42.672;23.296;2022-12-18T06:46:54;95867.25;;;6.86;67.45
35892;BME280;21993;42.672;23.296;2022-12-18T06:49:20;95882.25;;;6.66;67.72
35892;BME280;21993;42.672;23.296;2022-12-18T06:51:45;95874.59;;;6.79;67.67
35892;BME280;21993;42.672;23.296;2022-12-18T06:54:11;95890.44;;;6.92;67.20
35892;BME280;21993;42.672;23.296;2022-12-18T06:56:36;95888.66;;;6.92;66.81
35892;BME280;21993;42.672;23.296;2022-12-18T06:59:02;95881.41;;;6.97;66.01
35892;BME280;21993;42.672;23.296;2022-12-18T07:01:27;95891.34;;;6.91;66.46
35892;BME280;21993;42.672;23.296;2022-12-18T07:03:54;95895.81;;;6.73;66.37
35892;BME280;21993;42.672;23.296;2022-12-18T07:06:21;95891.16;;;6.78;66.31
35892;BME280;21993;42.672;23.296;2022-12-18T07:08:48;95890.44;;;6.92;66.10
35892;BME280;21993;42.672;23.296;2022-12-18T07:11:15;95899.44;;;7.02;66.20
35892;BME280;21993;42.672;23.296;2022-12-18T07:13:40;95895.22;;;6.99;66.68
35892;BME280;21993;42.672;23.296;2022-12-18T07:16:11;95901.09;;;7.03;65.89
35892;BME280;21993;42.672;23.296;2022-12-18T07:18:37;95900.97;;;6.90;66.08
35892;BME280;21993;42.672;23.296;2022-12-18T07:21:10;95900.13;;;6.90;66.33
35892;BME280;21993;42.672;23.296;2022-12-18T07:23:36;95895.38;;;6.81;66.67
35892;BME280;21993;42.672;23.296;2022-12-18T07:26:03;95898.50;;;6.87;65.45
35892;BME280;21993;42.672;23.296;2022-12-18T07:28:29;95898.16;;;6.77;66.08
35892;BME280;21993;42.672;23.296;2022-12-18T07:30:55;95913.22;;;6.88;65.39
35892;BME280;21993;42.672;23.296;2022-12-18T07:33:20;95913.28;;;6.71;65.96
35892;BME280;21993;42.672;23.296;2022-12-18T07:35:46;95920.41;;;6.85;65.59
35892;BME280;21993;42.672;23.296;2022-12-18T07:38:11;95913.50;;;6.84;66.07
35892;BME280;21993;42.672;23.296;2022-12-18T07:40:36;95926.03;;;6.93;66.06
35892;BME280;21993;42.672;23.296;2022-12-18T07:43:02;95918.13;;;6.94;65.50
35892;BME280;21993;42.672;23.296;2022-12-18T07:45:30;95922.91;;;7.02;65.12
35892;BME280;21993;42.672;23.296;2022-12-18T07:47:56;95933.50;;;6.67;65.39
35892;BME280;21993;42.672;23.296;2022-12-18T07:50:21;95922.81;;;6.88;65.56
35892;BME280;21993;42.672;23.296;2022-12-18T07:52:47;95928.03;;;6.88;65.53
35892;BME280;21993;42.672;23.296;2022-12-18T07:55:12;95929.16;;;6.84;65.52
35892;BME280;21993;42.672;23.296;2022-12-18T07:57:37;95934.03;;;6.74;65.83
35892;BME280;21993;42.672;23.296;2022-12-18T08:00:03;95939.25;;;6.74;65.47
35892;BME280;21993;42.672;23.296;2022-12-18T08:02:31;95946.38;;;6.70;65.38
35892;BME280;21993;42.672;23.296;2022-12-18T08:04:56;95951.72;;;6.52;66.19
35892;BME280;21993;42.672;23.296;2022-12-18T08:07:22;95951.06;;;6.64;66.30
35892;BME280;21993;42.672;23.296;2022-12-18T08:09:47;95954.56;;;6.64;65.75
35892;BME280;21993;42.672;23.296;2022-12-18T08:12:12;95955.03;;;6.71;65.74
35892;BME280;21993;42.672;23.296;2022-12-18T08:14:38;95959.63;;;6.50;66.04
35892;BME280;21993;42.672;23.296;2022-12-18T08:17:03;95969.50;;;6.61;66.49
35892;BME280;21993;42.672;23.296;2022-12-18T08:19:28;95960.75;;;6.62;65.48
35892;BME280;21993;42.672;23.296;2022-12-18T08:21:54;95969.59;;;6.59;65.82
35892;BME280;21993;42.672;23.296;2022-12-18T08:24:19;95977.53;;;6.73;65.86
35892;BME280;21993;42.672;23.296;2022-12-18T08:26:44;95978.97;;;6.79;65.55
35892;BME280;21993;42.672;23.296;2022-12-18T08:29:10;95985.31;;;6.58;66.17
35892;BME280;21993;42.672;23.296;2022-12-18T08:31:36;95984.53;;;6.56;66.63
35892;BME280;21993;42.672;23.296;2022-12-18T08:34:02;95994.97;;;6.56;66.05
35892;BME280;21993;42.672;23.296;2022-12-18T08:36:27;95995.03;;;6.71;65.89
35892;BME280;21993;42.672;23.296;2022-12-18T08:38:53;95995.09;;;6.70;65.93
35892;BME280;21993;42.672;23.296;2022-12-18T08:41:20;95994.09;;;6.72;66.01
35892;BME280;21993;42.672;23.296;2022-12-18T08:43:46;95993.50;;;6.67;65.49
35892;BME280;21993;42.672;23.296;2022-12-18T08:46:48;95995.44;;;6.46;65.74
35892;BME280;21993;42.672;23.296;2022-12-18T08:49:13;95995.91;;;6.55;65.57
35892;BME280;21993;42.672;23.296;2022-12-18T08:51:39;96005.19;;;6.60;65.93
35892;BME280;21993;42.672;23.296;2022-12-18T08:54:05;96001.44;;;6.66;65.45
35892;BME280;21993;42.672;23.296;2022-12-18T08:56:31;95997.63;;;6.71;65.38
35892;BME280;21993;42.672;23.296;2022-12-18T08:58:56;95991.47;;;6.57;66.06
35892;BME280;21993;42.672;23.296;2022-12-18T09:01:23;95997.75;;;6.53;65.37
35892;BME280;21993;42.672;23.296;2022-12-18T09:03:49;95990.19;;;6.64;65.38
35892;BME280;21993;42.672;23.296;2022-12-18T09:06:16;95995.28;;;6.67;64.58
35892;BME280;21993;42.672;23.296;2022-12-18T09:08:43;95984.97;;;6.64;65.50
35892;BME280;21993;42.672;23.296;2022-12-18T09:11:35;95991.09;;;6.80;64.90
35892;BME280;21993;42.672;23.296;2022-12-18T09:14:01;95991.03;;;6.82;64.59
35892;BME280;21993;42.672;23.296;2022-12-18T09:16:28;95991.16;;;6.78;65.11
35892;BME280;21993;42.672;23.296;2022-12-18T09:18:57;95995.41;;;6.81;65.00
35892;BME280;21993;42.672;23.296;2022-12-18T09:21:28;95993.81;;;6.94;65.22
35892;BME280;21993;42.672;23.296;2022-12-18T09:23:55;95985.81;;;6.97;64.33
35892;BME280;21993;42.672;23.296;2022-12-18T09:26:22;95977.66;;;7.03;64.73
35892;BME280;21993;42.672;23.296;2022-12-18T09:28:48;95981.00;;;7.05;64.36
35892;BME280;21993;42.672;23.296;2022-12-18T09:31:14;95984.47;;;7.06;63.90
35892;BME280;21993;42.672;23.296;2022-12-18T09:33:39;95984.31;;;7.09;63.42
35892;BME280;21993;42.672;23.296;2022-12-18T09:36:06;95992.13;;;6.93;63.79
35892;BME280;21993;42.672;23.296;2022-12-18T09:38:33;95995.19;;;7.01;63.20
35892;BME280;21993;42.672;23.296;2022-12-18T09:41:06;95996.19;;;6.99;63.27
35892;BME280;21993;42.672;23.296;2022-12-18T09:43:55;95986.94;;;7.09;62.26
35892;BME280;21993;42.672;23.296;2022-12-18T09:46:28;95996.63;;;7.07;62.68
35892;BME280;21993;42.672;23.296;2022-12-18T09:48:59;95997.00;;;6.84;63.02
35892;BME280;21993;42.672;23.296;2022-12-18T09:51:27;95990.19;;;6.97;62.81
35892;BME280;21993;42.672;23.296;2022-12-18T09:53:57;95991.38;;;6.91;63.43
35892;BME280;21993;42.672;23.296;2022-12-18T09:56:28;95989.13;;;7.01;63.23
35892;BME280;21993;42.672;23.296;2022-12-18T09:58:58;95990.38;;;7.10;62.85
35892;BME280;21993;42.672;23.296;2022-12-18T10:01:25;95981.22;;;7.18;61.82
35892;BME280;21993;42.672;23.296;2022-12-18T10:03:52;95988.69;;;6.93;61.93
35892;BME280;21993;42.672;23.296;2022-12-18T10:09:00;95986.25;;;7.05;62.45
35892;BME280;21993;42.672;23.296;2022-12-18T10:15:02;95980.13;;;7.07;62.36
35892;BME280;21993;42.672;23.296;2022-12-18T10:20:16;95992.81;;;7.13;61.12
35892;BME280;21993;42.672;23.296;2022-12-18T10:28:16;95993.41;;;7.02;60.74
35892;BME280;21993;42.672;23.296;2022-12-18T10:30:43;95986.59;;;7.15;60.59
35892;BME280;21993;42.672;23.296;2022-12-18T10:33:16;95995.78;;;7.07;60.37
35892;BME280;21993;42.672;23.296;2022-12-18T10:35:42;95989.53;;;6.93;61.08
35892;BME280;21993;42.672;23.296;2022-12-18T10:41:23;95994.06;;;7.05;61.21
35892;BME280;21993;42.672;23.296;2022-12-18T10:44:17;95989.28;;;7.14;60.68
35892;BME280;21993;42.672;23.296;2022-12-18T10:46:45;95990.31;;;7.27;60.85
35892;BME280;21993;42.672;23.296;2022-12-18T10:49:26;95978.75;;;7.31;60.10
35892;BME280;21993;42.672;23.296;2022-12-18T10:52:11;95983.56;;;7.23;60.57
35892;BME280;21993;42.672;23.296;2022-12-18T10:54:39;95994.28;;;7.50;60.45
35892;BME280;21993;42.672;23.296;2022-12-18T10:57:16;95984.25;;;7.58;60.29
35892;BME280;21993;42.672;23.296;2022-12-18T10:59:56;95990.47;;;7.40;59.59
35892;BME280;21993;42.672;23.296;2022-12-18T11:02:35;95986.84;;;7.42;59.21
35892;BME280;21993;42.672;23.296;2022-12-18T11:05:03;95992.41;;;7.52;58.90
35892;BME280;21993;42.672;23.296;2022-12-18T11:07:48;95991.75;;;7.32;59.02
35892;BME280;21993;42.672;23.296;2022-12-18T11:10:17;95991.72;;;7.01;59.29
35892;BME280;21993;42.672;23.296;2022-12-18T11:12:43;95998.09;;;6.95;58.98
35892;BME280;21993;42.672;23.296;2022-12-18T11:15:24;95993.09;;;7.08;57.86
35892;BME280;21993;42.672;23.296;2022-12-18T11:17:51;95985.50;;;7.19;58.00
35892;BME280;21993;42.672;23.296;2022-12-18T11:20:35;95992.59;;;7.17;57.99
35892;BME280;21993;42.672;23.296;2022-12-18T11:23:10;96004.94;;;6.98;58.27
35892;BME280;21993;42.672;23.296;2022-12-18T11:25:37;95999.41;;;7.20;58.16
35892;BME280;21993;42.672;23.296;2022-12-18T11:28:08;96001.00;;;7.22;57.42
35892;BME280;21993;42.672;23.296;2022-12-18T11:31:26;95995.03;;;7.36;57.76
35892;BME280;21993;42.672;23.296;2022-12-18T11:36:42;95987.78;;;7.25;57.87
35892;BME280;21993;42.672;23.296;2022-12-18T11:39:33;95989.47;;;7.42;58.44
35892;BME280;21993;42.672;23.296;2022-12-18T11:42:14;95995.34;;;7.46;57.27
35892;BME280;21993;42.672;23.296;2022-12-18T11:44:59;95997.22;;;7.59;57.94
35892;BME280;21993;42.672;23.296;2022-12-18T11:50:20;96001.41;;;7.30;56.88
35892;BME280;21993;42.672;23.296;2022-12-18T11:52:47;96003.88;;;7.49;57.03
35892;BME280;21993;42.672;23.296;2022-12-18T11:55:15;95999.16;;;7.40;56.92
35892;BME280;21993;42.672;23.296;2022-12-18T12:00:22;95992.22;;;7.39;57.02
35892;BME280;21993;42.672;23.296;2022-12-18T12:05:54;95990.88;;;7.48;57.43
35892;BME280;21993;42.672;23.296;2022-12-18T12:16:17;95992.31;;;7.53;57.42
35892;BME280;21993;42.672;23.296;2022-12-18T12:19:02;95990.97;;;7.62;57.68
35892;BME280;21993;42.672;23.296;2022-12-18T12:21:42;95989.28;;;7.61;57.22
35892;BME280;21993;42.672;23.296;2022-12-18T12:27:14;95988.03;;;7.52;57.24
35892;BME280;21993;42.672;23.296;2022-12-18T12:29:54;95990.34;;;7.73;58.00
35892;BME280;21993;42.672;23.296;2022-12-18T12:32:49;95989.44;;;7.74;57.52
35892;BME280;21993;42.672;23.296;2022-12-18T12:38:08;96000.31;;;7.66;58.43
35892;BME280;21993;42.672;23.296;2022-12-18T12:40:41;96001.72;;;7.72;58.38
35892;BME280;21993;42.672;23.296;2022-12-18T12:43:32;96004.72;;;7.66;57.68
35892;BME280;21993;42.672;23.296;2022-12-18T12:46:04;95994.19;;;7.51;58.74
35892;BME280;21993;42.672;23.296;2022-12-18T12:51:25;96004.53;;;7.53;58.50
35892;BME280;21993;42.672;23.296;2022-12-18T12:53:51;96004.03;;;7.62;58.92
35892;BME280;21993;42.672;23.296;2022-12-18T12:56:20;96000.97;;;7.70;58.60
35892;BME280;21993;42.672;23.296;2022-12-18T12:59:01;96002.50;;;7.74;58.78
35892;BME280;21993;42.672;23.296;2022-12-18T13:01:51;95995.00;;;7.83;58.59
35892;BME280;21993;42.672;23.296;2022-12-18T13:04:50;96009.84;;;7.83;58.53
35892;BME280;21993;42.672;23.296;2022-12-18T13:07:23;96016.25;;;7.77;58.48
35892;BME280;21993;42.672;23.296;2022-12-18T13:10:19;96015.31;;;7.78;58.13
35892;BME280;21993;42.672;23.296;2022-12-18T13:13:08;96028.56;;;7.75;58.02
35892;BME280;21993;42.672;23.296;2022-12-18T13:15:41;96021.78;;;7.87;57.23
35892;BME280;21993;42.672;23.296;2022-12-18T13:25:51;96028.28;;;7.64;57.57
35892;BME280;21993;42.672;23.296;2022-12-18T13:28:22;96037.47;;;7.71;57.44
35892;BME280;21993;42.672;23.296;2022-12-18T13:30:55;96035.97;;;7.67;58.25
35892;BME280;21993;42.672;23.296;2022-12-18T13:38:40;96041.78;;;7.72;57.74
35892;BME280;21993;42.672;23.296;2022-12-18T13:43:43;96040.94;;;7.87;57.73
35892;BME280;21993;42.672;23.296;2022-12-18T13:51:22;96053.75;;;7.76;57.63
35892;BME280;21993;42.672;23.296;2022-12-18T13:53:52;96052.41;;;7.85;57.63
35892;BME280;21993;42.672;23.296;2022-12-18T13:56:22;96052.59;;;7.82;57.46
35892;BME280;21993;42.672;23.296;2022-12-18T14:01:53;96060.84;;;7.74;58.17
35892;BME280;21993;42.672;23.296;2022-12-18T14:04:31;96067.34;;;7.67;57.55
35892;BME280;21993;42.672;23.296;2022-12-18T14:07:05;96063.19;;;7.47;58.66
35892;BME280;21993;42.672;23.296;2022-12-18T14:09:47;96060.75;;;7.60;57.20
35892;BME280;21993;42.672;23.296;2022-12-18T14:12:19;96059.00;;;7.60;57.38
35892;BME280;21993;42.672;23.296;2022-12-18T14:15:15;96071.63;;;7.52;56.54
35892;BME280;21993;42.672;23.296;2022-12-18T14:17:46;96069.94;;;7.51;56.46
35892;BME280;21993;42.672;23.296;2022-12-18T14:20:15;96077.53;;;7.56;56.15
35892;BME280;21993;42.672;23.296;2022-12-18T14:22:45;96075.19;;;7.67;55.70
35892;BME280;21993;42.672;23.296;2022-12-18T14:25:20;96078.31;;;7.58;55.99
35892;BME280;21993;42.672;23.296;2022-12-18T14:30:36;96082.16;;;7.51;55.76
35892;BME280;21993;42.672;23.296;2022-12-18T14:35:37;96090.00;;;7.51;55.46
35892;BME280;21993;42.672;23.296;2022-12-18T14:40:36;96078.44;;;7.55;54.97
35892;BME280;21993;42.672;23.296;2022-12-18T14:43:01;96074.34;;;7.51;55.07
35892;BME280;21993;42.672;23.296;2022-12-18T14:45:53;96074.75;;;7.59;55.89
35892;BME280;21993;42.672;23.296;2022-12-18T14:48:20;96076.88;;;7.68;54.99
35892;BME280;21993;42.672;23.296;2022-12-18T14:53:51;96077.09;;;7.63;54.69
35892;BME280;21993;42.672;23.296;2022-12-18T14:56:22;96081.31;;;7.50;55.40
35892;BME280;21993;42.672;23.296;2022-12-18T14:58:50;96079.22;;;7.57;54.46
35892;BME280;21993;42.672;23.296;2022-12-18T15:01:22;96086.91;;;7.60;54.98